Alley Springs, MO

11:11 AM CDT on October 24, 2014 (GMT -0500)
Country | Change Station
CLOSE
Current Station
Personal Weather Station
Location: Elk Creek, MO
Elevation: 1332 ft
Nearby Weather Stations

Elev 1332 ft 37.15 °N, 91.91 °W | Updated 4 minutes ago

Partly Cloudy
Partly Cloudy
64.0 °F
Feels Like 64.0 °F
N
0.0
Wind Variable Wind from NW
Gusts 8.0 mph

Today
High -- | Low -- °F
--% Chance of Precip.
Yesterday
High -- | Low -- °F
Precip. -- in
7:22 AM 6:17 PM
New Moon, 1% visible
Pressure 30.16 in
Visibility 10.0 miles
Clouds Few 2200 ft
Dew Point 58 °F
Humidity 82%
Rainfall 0.00 in
Snow Depth Not available.
UV 4 out of 12
Pollen 2.70 out of 12
Air Quality Not available.
Flu Activity No Activity
METAR KUNO 241553Z AUTO 23005KT 10SM FEW022 17/12 A3016 RMK AO2 SLP211 T01720117

More Conditions Fewer Conditions

Pressure 30.16 in
Visibility 10.0 miles
Clouds Few 2200 ft
Dew Point 58 °F
Humidity 82%
Rainfall 0.00 in
Snow Depth Not available.
UV 4 out of 12
Pollen 2.70 out of 12
Air Quality Not available.
Flu Activity No Activity
METAR KUNO 241553Z AUTO 23005KT 10SM FEW022 17/12 A3016 RMK AO2 SLP211 T01720117

More Conditions Fewer Conditions

10-Day Weather Forecast

Almanac

Astronomy

Oct. 24, 2014 Rise Set
Actual Time 7:22 AM CDT 6:17 PM CDT
Civil Twilight 6:55 AM CDT 6:43 PM CDT
Nautical Twilight 6:25 AM CDT 7:14 PM CDT
Astronomical Twilight 5:55 AM CDT 7:44 PM CDT
Moon 8:00 AM CDT 6:58 PM CDT
Length of Visible Light 11h 48m
Length of Day
10h 55m
Tomorrow will be 2m 10s shorter.
New Moon, 1% of the Moon is Illuminated
Today
New Moon
Oct 30
First Quarter
Nov 6
Full
Nov 14
Last Quarter
Nov 22
New

Today's Extremes

State Highs State Lows

Community

WunderPhotos

Upload Photos

1,764,600 photos uploaded!

WunderBlogs® & News

Nearby

Snow Depth

Station Depth Elevation
No new snow has been reported.

Earthquake Activity

City Distance Mag. Time & Date
No recent earthquake activity has been reported nearby.
Minimum magnitude displayed is 2.5.

Coastal Water Temperatures

Place Temperature
No Stations Reporting

Nearby Weather Stations